sensor_id;sensor_type;location;lat;lon;timestamp;P1;durP1;ratioP1;P2;durP2;ratioP2
42978;SDS011;28616;44.746;19.678;2023-07-24T00:02:10;15.77;;;11.90;;
42978;SDS011;28616;44.746;19.678;2023-07-24T00:04:36;23.92;;;12.35;;
42978;SDS011;28616;44.746;19.678;2023-07-24T00:07:02;19.15;;;12.95;;
42978;SDS011;28616;44.746;19.678;2023-07-24T00:09:28;22.67;;;12.85;;
42978;SDS011;28616;44.746;19.678;2023-07-24T00:11:55;20.45;;;12.20;;
42978;SDS011;28616;44.746;19.678;2023-07-24T00:14:21;23.20;;;12.48;;
42978;SDS011;28616;44.746;19.678;2023-07-24T00:16:47;19.70;;;12.00;;
42978;SDS011;28616;44.746;19.678;2023-07-24T00:19:13;20.95;;;12.57;;
42978;SDS011;28616;44.746;19.678;2023-07-24T00:21:39;22.50;;;13.40;;
42978;SDS011;28616;44.746;19.678;2023-07-24T00:24:05;19.85;;;12.00;;
42978;SDS011;28616;44.746;19.678;2023-07-24T00:26:31;22.52;;;13.13;;
42978;SDS011;28616;44.746;19.678;2023-07-24T00:28:59;19.65;;;13.50;;
42978;SDS011;28616;44.746;19.678;2023-07-24T00:31:25;20.83;;;14.85;;
42978;SDS011;28616;44.746;19.678;2023-07-24T00:33:52;24.30;;;15.25;;
42978;SDS011;28616;44.746;19.678;2023-07-24T00:36:18;21.45;;;14.73;;
42978;SDS011;28616;44.746;19.678;2023-07-24T00:38:44;22.13;;;15.48;;
42978;SDS011;28616;44.746;19.678;2023-07-24T00:41:10;24.33;;;13.77;;
42978;SDS011;28616;44.746;19.678;2023-07-24T00:43:36;21.30;;;14.07;;
42978;SDS011;28616;44.746;19.678;2023-07-24T00:46:03;22.90;;;15.45;;
42978;SDS011;28616;44.746;19.678;2023-07-24T00:48:29;24.70;;;13.75;;
42978;SDS011;28616;44.746;19.678;2023-07-24T00:50:55;23.40;;;14.68;;
42978;SDS011;28616;44.746;19.678;2023-07-24T00:53:22;20.58;;;14.13;;
42978;SDS011;28616;44.746;19.678;2023-07-24T00:55:48;19.83;;;14.50;;
42978;SDS011;28616;44.746;19.678;2023-07-24T00:58:14;19.27;;;13.88;;
42978;SDS011;28616;44.746;19.678;2023-07-24T01:00:43;20.35;;;13.85;;
42978;SDS011;28616;44.746;19.678;2023-07-24T01:03:09;23.85;;;14.35;;
42978;SDS011;28616;44.746;19.678;2023-07-24T01:05:37;39.03;;;13.68;;
42978;SDS011;28616;44.746;19.678;2023-07-24T01:08:04;26.20;;;14.00;;
42978;SDS011;28616;44.746;19.678;2023-07-24T01:10:30;18.92;;;13.35;;
42978;SDS011;28616;44.746;19.678;2023-07-24T01:13:06;21.30;;;14.65;;
42978;SDS011;28616;44.746;19.678;2023-07-24T01:15:45;23.05;;;14.35;;
42978;SDS011;28616;44.746;19.678;2023-07-24T01:18:13;20.25;;;14.30;;
42978;SDS011;28616;44.746;19.678;2023-07-24T01:20:42;22.23;;;13.90;;
42978;SDS011;28616;44.746;19.678;2023-07-24T01:23:13;18.77;;;13.68;;
42978;SDS011;28616;44.746;19.678;2023-07-24T01:25:51;21.00;;;13.63;;
42978;SDS011;28616;44.746;19.678;2023-07-24T01:28:18;25.40;;;14.40;;
42978;SDS011;28616;44.746;19.678;2023-07-24T01:30:45;21.95;;;14.35;;
42978;SDS011;28616;44.746;19.678;2023-07-24T01:33:11;19.98;;;13.52;;
42978;SDS011;28616;44.746;19.678;2023-07-24T01:35:38;20.80;;;12.77;;
42978;SDS011;28616;44.746;19.678;2023-07-24T01:38:04;18.90;;;13.65;;
42978;SDS011;28616;44.746;19.678;2023-07-24T01:40:30;20.77;;;13.90;;
42978;SDS011;28616;44.746;19.678;2023-07-24T01:42:57;23.85;;;13.70;;
42978;SDS011;28616;44.746;19.678;2023-07-24T01:45:24;20.33;;;13.48;;
42978;SDS011;28616;44.746;19.678;2023-07-24T01:47:50;20.58;;;13.98;;
42978;SDS011;28616;44.746;19.678;2023-07-24T01:50:16;22.95;;;13.88;;
42978;SDS011;28616;44.746;19.678;2023-07-24T01:52:42;22.05;;;13.98;;
42978;SDS011;28616;44.746;19.678;2023-07-24T01:55:10;22.70;;;14.45;;
42978;SDS011;28616;44.746;19.678;2023-07-24T01:57:36;20.77;;;13.98;;
42978;SDS011;28616;44.746;19.678;2023-07-24T02:00:02;20.02;;;12.93;;
42978;SDS011;28616;44.746;19.678;2023-07-24T02:02:28;19.65;;;13.88;;
42978;SDS011;28616;44.746;19.678;2023-07-24T02:04:54;19.92;;;14.13;;
42978;SDS011;28616;44.746;19.678;2023-07-24T02:07:21;24.95;;;14.05;;
42978;SDS011;28616;44.746;19.678;2023-07-24T02:09:47;18.70;;;13.27;;
42978;SDS011;28616;44.746;19.678;2023-07-24T02:12:13;19.25;;;14.13;;
42978;SDS011;28616;44.746;19.678;2023-07-24T02:14:39;25.65;;;13.27;;
42978;SDS011;28616;44.746;19.678;2023-07-24T02:17:05;22.17;;;14.38;;
42978;SDS011;28616;44.746;19.678;2023-07-24T02:19:31;21.35;;;14.48;;
42978;SDS011;28616;44.746;19.678;2023-07-24T02:21:57;20.80;;;14.27;;
42978;SDS011;28616;44.746;19.678;2023-07-24T02:24:23;19.67;;;13.63;;
42978;SDS011;28616;44.746;19.678;2023-07-24T02:26:50;17.63;;;13.45;;
42978;SDS011;28616;44.746;19.678;2023-07-24T02:29:17;18.58;;;13.70;;
42978;SDS011;28616;44.746;19.678;2023-07-24T02:31:44;18.17;;;13.10;;
42978;SDS011;28616;44.746;19.678;2023-07-24T02:34:10;21.20;;;13.60;;
42978;SDS011;28616;44.746;19.678;2023-07-24T02:36:36;20.02;;;13.70;;
42978;SDS011;28616;44.746;19.678;2023-07-24T02:39:03;21.48;;;14.82;;
42978;SDS011;28616;44.746;19.678;2023-07-24T02:41:29;20.60;;;14.10;;
42978;SDS011;28616;44.746;19.678;2023-07-24T02:43:55;18.70;;;14.05;;
42978;SDS011;28616;44.746;19.678;2023-07-24T02:46:21;22.23;;;14.13;;
42978;SDS011;28616;44.746;19.678;2023-07-24T02:48:49;18.73;;;13.45;;
42978;SDS011;28616;44.746;19.678;2023-07-24T02:51:15;22.02;;;13.40;;
42978;SDS011;28616;44.746;19.678;2023-07-24T02:53:41;22.48;;;13.27;;
42978;SDS011;28616;44.746;19.678;2023-07-24T02:56:07;19.75;;;13.73;;
42978;SDS011;28616;44.746;19.678;2023-07-24T02:58:33;21.73;;;14.38;;
42978;SDS011;28616;44.746;19.678;2023-07-24T03:01:06;18.52;;;12.95;;
42978;SDS011;28616;44.746;19.678;2023-07-24T03:03:33;19.40;;;14.40;;
42978;SDS011;28616;44.746;19.678;2023-07-24T03:05:59;23.50;;;14.45;;
42978;SDS011;28616;44.746;19.678;2023-07-24T03:08:25;24.25;;;13.20;;
42978;SDS011;28616;44.746;19.678;2023-07-24T03:10:51;23.73;;;13.45;;
42978;SDS011;28616;44.746;19.678;2023-07-24T03:13:17;24.52;;;14.02;;
42978;SDS011;28616;44.746;19.678;2023-07-24T03:15:44;20.73;;;13.23;;
42978;SDS011;28616;44.746;19.678;2023-07-24T03:18:16;24.02;;;14.38;;
42978;SDS011;28616;44.746;19.678;2023-07-24T03:20:42;20.30;;;13.30;;
42978;SDS011;28616;44.746;19.678;2023-07-24T03:23:09;18.98;;;13.30;;
42978;SDS011;28616;44.746;19.678;2023-07-24T03:25:35;21.02;;;13.75;;
42978;SDS011;28616;44.746;19.678;2023-07-24T03:28:01;26.27;;;15.00;;
42978;SDS011;28616;44.746;19.678;2023-07-24T03:30:27;24.77;;;14.55;;
42978;SDS011;28616;44.746;19.678;2023-07-24T03:32:53;20.08;;;13.60;;
42978;SDS011;28616;44.746;19.678;2023-07-24T03:35:19;22.25;;;14.82;;
42978;SDS011;28616;44.746;19.678;2023-07-24T03:37:46;24.17;;;15.57;;
42978;SDS011;28616;44.746;19.678;2023-07-24T03:40:12;32.20;;;17.75;;
42978;SDS011;28616;44.746;19.678;2023-07-24T03:47:18;37.60;;;19.48;;
42978;SDS011;28616;44.746;19.678;2023-07-24T03:49:44;31.55;;;18.85;;
42978;SDS011;28616;44.746;19.678;2023-07-24T03:52:10;30.90;;;17.38;;
42978;SDS011;28616;44.746;19.678;2023-07-24T03:54:36;24.73;;;16.00;;
42978;SDS011;28616;44.746;19.678;2023-07-24T03:57:02;23.27;;;14.90;;
42978;SDS011;28616;44.746;19.678;2023-07-24T03:59:28;24.13;;;15.15;;
42978;SDS011;28616;44.746;19.678;2023-07-24T04:01:54;23.98;;;14.45;;
42978;SDS011;28616;44.746;19.678;2023-07-24T04:04:20;20.33;;;13.35;;
42978;SDS011;28616;44.746;19.678;2023-07-24T04:06:46;19.15;;;13.98;;
42978;SDS011;28616;44.746;19.678;2023-07-24T04:09:13;19.73;;;14.30;;
42978;SDS011;28616;44.746;19.678;2023-07-24T04:11:44;22.88;;;14.88;;
42978;SDS011;28616;44.746;19.678;2023-07-24T04:14:11;28.17;;;14.98;;
42978;SDS011;28616;44.746;19.678;2023-07-24T04:16:37;22.23;;;14.02;;
42978;SDS011;28616;44.746;19.678;2023-07-24T04:19:03;21.98;;;14.07;;
42978;SDS011;28616;44.746;19.678;2023-07-24T04:21:29;24.08;;;14.90;;
42978;SDS011;28616;44.746;19.678;2023-07-24T04:23:55;20.90;;;13.57;;
42978;SDS011;28616;44.746;19.678;2023-07-24T04:26:21;22.27;;;14.40;;
42978;SDS011;28616;44.746;19.678;2023-07-24T04:28:47;27.35;;;16.08;;
42978;SDS011;28616;44.746;19.678;2023-07-24T04:31:13;29.08;;;15.55;;
42978;SDS011;28616;44.746;19.678;2023-07-24T04:33:40;26.75;;;15.38;;
42978;SDS011;28616;44.746;19.678;2023-07-24T04:36:06;26.27;;;15.80;;
42978;SDS011;28616;44.746;19.678;2023-07-24T04:38:32;24.88;;;16.10;;
42978;SDS011;28616;44.746;19.678;2023-07-24T04:41:00;24.80;;;16.30;;
42978;SDS011;28616;44.746;19.678;2023-07-24T04:43:27;24.63;;;16.15;;
42978;SDS011;28616;44.746;19.678;2023-07-24T04:45:53;25.30;;;16.15;;
42978;SDS011;28616;44.746;19.678;2023-07-24T04:48:19;32.72;;;16.38;;
42978;SDS011;28616;44.746;19.678;2023-07-24T04:50:45;25.65;;;15.52;;
42978;SDS011;28616;44.746;19.678;2023-07-24T04:53:11;25.40;;;14.52;;
42978;SDS011;28616;44.746;19.678;2023-07-24T04:55:37;24.63;;;15.20;;
42978;SDS011;28616;44.746;19.678;2023-07-24T04:58:04;22.50;;;14.10;;
42978;SDS011;28616;44.746;19.678;2023-07-24T05:00:30;25.58;;;14.35;;
42978;SDS011;28616;44.746;19.678;2023-07-24T05:02:56;27.65;;;14.60;;
42978;SDS011;28616;44.746;19.678;2023-07-24T05:05:22;24.73;;;13.80;;
42978;SDS011;28616;44.746;19.678;2023-07-24T05:07:48;23.45;;;12.52;;
42978;SDS011;28616;44.746;19.678;2023-07-24T05:10:14;19.83;;;12.52;;
42978;SDS011;28616;44.746;19.678;2023-07-24T05:12:41;19.85;;;12.85;;
42978;SDS011;28616;44.746;19.678;2023-07-24T05:15:07;21.73;;;12.35;;
42978;SDS011;28616;44.746;19.678;2023-07-24T05:17:33;20.85;;;12.45;;
42978;SDS011;28616;44.746;19.678;2023-07-24T05:20:00;21.90;;;11.77;;
42978;SDS011;28616;44.746;19.678;2023-07-24T05:22:26;20.50;;;12.77;;
42978;SDS011;28616;44.746;19.678;2023-07-24T05:24:52;20.35;;;12.10;;
42978;SDS011;28616;44.746;19.678;2023-07-24T05:27:18;18.00;;;12.57;;
42978;SDS011;28616;44.746;19.678;2023-07-24T05:29:44;18.33;;;11.20;;
42978;SDS011;28616;44.746;19.678;2023-07-24T05:32:10;19.90;;;12.45;;
42978;SDS011;28616;44.746;19.678;2023-07-24T05:34:36;18.23;;;11.55;;
42978;SDS011;28616;44.746;19.678;2023-07-24T05:37:03;27.42;;;12.85;;
42978;SDS011;28616;44.746;19.678;2023-07-24T05:39:29;22.00;;;12.38;;
42978;SDS011;28616;44.746;19.678;2023-07-24T05:41:55;22.45;;;12.18;;
42978;SDS011;28616;44.746;19.678;2023-07-24T05:44:22;22.48;;;11.07;;
42978;SDS011;28616;44.746;19.678;2023-07-24T05:46:48;23.52;;;10.73;;
42978;SDS011;28616;44.746;19.678;2023-07-24T05:49:14;21.20;;;11.27;;
42978;SDS011;28616;44.746;19.678;2023-07-24T05:51:40;19.63;;;11.23;;
42978;SDS011;28616;44.746;19.678;2023-07-24T05:54:06;19.20;;;11.60;;
42978;SDS011;28616;44.746;19.678;2023-07-24T05:56:32;19.83;;;10.77;;
42978;SDS011;28616;44.746;19.678;2023-07-24T05:58:58;24.25;;;11.65;;
42978;SDS011;28616;44.746;19.678;2023-07-24T06:01:24;21.90;;;10.68;;
42978;SDS011;28616;44.746;19.678;2023-07-24T06:03:50;18.55;;;11.00;;
42978;SDS011;28616;44.746;19.678;2023-07-24T06:06:17;21.90;;;10.70;;
42978;SDS011;28616;44.746;19.678;2023-07-24T06:08:44;22.27;;;10.80;;
42978;SDS011;28616;44.746;19.678;2023-07-24T06:11:12;18.48;;;10.38;;
42978;SDS011;28616;44.746;19.678;2023-07-24T06:13:38;23.02;;;10.05;;
42978;SDS011;28616;44.746;19.678;2023-07-24T06:16:04;24.45;;;10.18;;
42978;SDS011;28616;44.746;19.678;2023-07-24T06:18:32;17.67;;;10.80;;
42978;SDS011;28616;44.746;19.678;2023-07-24T06:20:58;20.33;;;9.70;;
42978;SDS011;28616;44.746;19.678;2023-07-24T06:23:24;22.23;;;9.30;;
42978;SDS011;28616;44.746;19.678;2023-07-24T06:25:50;16.23;;;9.35;;
42978;SDS011;28616;44.746;19.678;2023-07-24T06:28:18;23.20;;;10.13;;
42978;SDS011;28616;44.746;19.678;2023-07-24T06:30:44;21.27;;;10.05;;
42978;SDS011;28616;44.746;19.678;2023-07-24T06:33:10;19.83;;;8.68;;
42978;SDS011;28616;44.746;19.678;2023-07-24T06:35:36;18.35;;;9.80;;
42978;SDS011;28616;44.746;19.678;2023-07-24T06:38:02;16.02;;;10.02;;
42978;SDS011;28616;44.746;19.678;2023-07-24T09:44:19;16.13;;;9.40;;
42978;SDS011;28616;44.746;19.678;2023-07-24T09:46:45;19.95;;;9.20;;
42978;SDS011;28616;44.746;19.678;2023-07-24T09:49:11;18.00;;;10.10;;
42978;SDS011;28616;44.746;19.678;2023-07-24T09:51:38;19.90;;;9.55;;
42978;SDS011;28616;44.746;19.678;2023-07-24T09:56:33;19.48;;;9.85;;
42978;SDS011;28616;44.746;19.678;2023-07-24T09:59:00;20.70;;;9.82;;
42978;SDS011;28616;44.746;19.678;2023-07-24T10:01:28;15.93;;;9.57;;
42978;SDS011;28616;44.746;19.678;2023-07-24T10:03:54;20.55;;;9.80;;
42978;SDS011;28616;44.746;19.678;2023-07-24T10:06:21;17.70;;;9.75;;
42978;SDS011;28616;44.746;19.678;2023-07-24T10:08:47;16.30;;;9.43;;
42978;SDS011;28616;44.746;19.678;2023-07-24T10:11:14;15.57;;;8.98;;
42978;SDS011;28616;44.746;19.678;2023-07-24T10:13:40;16.15;;;9.35;;
42978;SDS011;28616;44.746;19.678;2023-07-24T10:16:07;18.90;;;9.13;;
42978;SDS011;28616;44.746;19.678;2023-07-24T10:18:34;18.85;;;10.55;;
42978;SDS011;28616;44.746;19.678;2023-07-24T10:21:01;15.65;;;9.48;;
42978;SDS011;28616;44.746;19.678;2023-07-24T10:23:28;16.95;;;10.13;;
42978;SDS011;28616;44.746;19.678;2023-07-24T10:25:54;17.85;;;9.68;;
42978;SDS011;28616;44.746;19.678;2023-07-24T10:28:29;16.55;;;9.90;;
42978;SDS011;28616;44.746;19.678;2023-07-24T10:30:55;24.55;;;9.85;;
42978;SDS011;28616;44.746;19.678;2023-07-24T10:33:22;19.08;;;9.50;;
42978;SDS011;28616;44.746;19.678;2023-07-24T10:35:53;16.27;;;9.65;;
42978;SDS011;28616;44.746;19.678;2023-07-24T10:40:46;18.45;;;9.73;;
42978;SDS011;28616;44.746;19.678;2023-07-24T10:43:14;19.23;;;9.70;;
42978;SDS011;28616;44.746;19.678;2023-07-24T10:45:50;19.98;;;9.88;;
42978;SDS011;28616;44.746;19.678;2023-07-24T10:48:17;17.55;;;9.25;;
42978;SDS011;28616;44.746;19.678;2023-07-24T10:50:44;17.67;;;10.18;;
42978;SDS011;28616;44.746;19.678;2023-07-24T10:53:11;16.80;;;9.05;;
42978;SDS011;28616;44.746;19.678;2023-07-24T10:55:37;20.13;;;10.00;;
42978;SDS011;28616;44.746;19.678;2023-07-24T10:58:03;17.42;;;9.32;;
42978;SDS011;28616;44.746;19.678;2023-07-24T11:00:30;13.85;;;8.75;;
42978;SDS011;28616;44.746;19.678;2023-07-24T11:02:56;25.13;;;9.88;;
42978;SDS011;28616;44.746;19.678;2023-07-24T11:05:22;21.10;;;9.50;;
42978;SDS011;28616;44.746;19.678;2023-07-24T11:07:49;17.52;;;9.82;;
42978;SDS011;28616;44.746;19.678;2023-07-24T11:10:18;16.17;;;10.07;;
42978;SDS011;28616;44.746;19.678;2023-07-24T11:12:45;19.02;;;9.57;;
42978;SDS011;28616;44.746;19.678;2023-07-24T11:15:12;16.92;;;9.27;;
42978;SDS011;28616;44.746;19.678;2023-07-24T11:17:39;16.83;;;9.27;;
42978;SDS011;28616;44.746;19.678;2023-07-24T11:20:15;16.92;;;9.48;;
42978;SDS011;28616;44.746;19.678;2023-07-24T11:22:43;23.13;;;10.27;;
42978;SDS011;28616;44.746;19.678;2023-07-24T11:25:10;16.05;;;9.00;;
42978;SDS011;28616;44.746;19.678;2023-07-24T11:27:43;18.75;;;9.77;;
42978;SDS011;28616;44.746;19.678;2023-07-24T11:30:12;15.43;;;8.77;;
42978;SDS011;28616;44.746;19.678;2023-07-24T11:32:39;15.27;;;9.15;;
42978;SDS011;28616;44.746;19.678;2023-07-24T11:35:05;16.65;;;8.90;;
42978;SDS011;28616;44.746;19.678;2023-07-24T11:37:33;19.27;;;9.52;;
42978;SDS011;28616;44.746;19.678;2023-07-24T11:40:00;16.33;;;8.95;;
42978;SDS011;28616;44.746;19.678;2023-07-24T11:42:44;17.60;;;8.63;;
42978;SDS011;28616;44.746;19.678;2023-07-24T11:45:10;17.02;;;9.27;;
42978;SDS011;28616;44.746;19.678;2023-07-24T11:47:43;16.58;;;9.02;;
42978;SDS011;28616;44.746;19.678;2023-07-24T11:50:09;14.75;;;8.38;;
42978;SDS011;28616;44.746;19.678;2023-07-24T11:52:39;18.05;;;8.93;;
42978;SDS011;28616;44.746;19.678;2023-07-24T11:55:06;14.80;;;8.32;;
42978;SDS011;28616;44.746;19.678;2023-07-24T11:57:32;17.58;;;9.20;;
42978;SDS011;28616;44.746;19.678;2023-07-24T11:59:58;15.52;;;8.80;;
42978;SDS011;28616;44.746;19.678;2023-07-24T12:02:28;18.77;;;8.57;;
42978;SDS011;28616;44.746;19.678;2023-07-24T12:04:57;14.15;;;7.97;;
42978;SDS011;28616;44.746;19.678;2023-07-24T12:07:28;17.17;;;8.68;;
42978;SDS011;28616;44.746;19.678;2023-07-24T12:09:54;15.40;;;8.93;;
42978;SDS011;28616;44.746;19.678;2023-07-24T12:12:21;16.05;;;8.30;;
42978;SDS011;28616;44.746;19.678;2023-07-24T12:14:47;16.95;;;8.57;;
42978;SDS011;28616;44.746;19.678;2023-07-24T12:17:17;16.00;;;7.70;;
42978;SDS011;28616;44.746;19.678;2023-07-24T12:19:44;16.02;;;8.43;;
42978;SDS011;28616;44.746;19.678;2023-07-24T12:22:11;15.73;;;8.63;;
42978;SDS011;28616;44.746;19.678;2023-07-24T12:24:37;16.73;;;7.63;;
42978;SDS011;28616;44.746;19.678;2023-07-24T12:27:03;13.77;;;7.63;;
42978;SDS011;28616;44.746;19.678;2023-07-24T12:29:29;15.05;;;8.50;;
42978;SDS011;28616;44.746;19.678;2023-07-24T12:31:55;15.50;;;8.35;;
42978;SDS011;28616;44.746;19.678;2023-07-24T12:34:21;12.73;;;7.70;;
42978;SDS011;28616;44.746;19.678;2023-07-24T12:36:47;13.63;;;8.10;;
42978;SDS011;28616;44.746;19.678;2023-07-24T12:39:14;13.77;;;7.70;;
42978;SDS011;28616;44.746;19.678;2023-07-24T12:41:40;14.52;;;7.97;;
42978;SDS011;28616;44.746;19.678;2023-07-24T12:44:06;13.65;;;8.23;;
42978;SDS011;28616;44.746;19.678;2023-07-24T12:46:32;15.35;;;8.40;;
42978;SDS011;28616;44.746;19.678;2023-07-24T12:48:58;21.52;;;8.48;;
42978;SDS011;28616;44.746;19.678;2023-07-24T12:51:24;13.75;;;8.63;;
42978;SDS011;28616;44.746;19.678;2023-07-24T12:53:50;21.73;;;8.48;;
42978;SDS011;28616;44.746;19.678;2023-07-24T12:56:16;13.43;;;7.53;;
42978;SDS011;28616;44.746;19.678;2023-07-24T12:58:42;15.35;;;8.25;;
42978;SDS011;28616;44.746;19.678;2023-07-24T13:01:09;16.40;;;8.13;;
42978;SDS011;28616;44.746;19.678;2023-07-24T13:03:35;13.35;;;7.85;;
42978;SDS011;28616;44.746;19.678;2023-07-24T13:06:01;15.30;;;8.90;;
42978;SDS011;28616;44.746;19.678;2023-07-24T13:08:27;15.52;;;8.40;;
42978;SDS011;28616;44.746;19.678;2023-07-24T13:10:53;13.93;;;7.32;;
42978;SDS011;28616;44.746;19.678;2023-07-24T13:13:19;15.43;;;8.00;;
42978;SDS011;28616;44.746;19.678;2023-07-24T13:15:46;14.23;;;8.13;;
42978;SDS011;28616;44.746;19.678;2023-07-24T13:18:12;15.02;;;7.65;;
42978;SDS011;28616;44.746;19.678;2023-07-24T13:20:39;14.65;;;8.25;;
42978;SDS011;28616;44.746;19.678;2023-07-24T13:23:06;12.80;;;7.57;;
42978;SDS011;28616;44.746;19.678;2023-07-24T13:25:32;13.40;;;8.23;;
42978;SDS011;28616;44.746;19.678;2023-07-24T13:27:58;16.17;;;7.90;;
42978;SDS011;28616;44.746;19.678;2023-07-24T13:30:24;14.95;;;8.35;;
42978;SDS011;28616;44.746;19.678;2023-07-24T13:32:50;14.23;;;8.15;;
42978;SDS011;28616;44.746;19.678;2023-07-24T13:35:16;14.20;;;8.10;;
42978;SDS011;28616;44.746;19.678;2023-07-24T13:37:42;12.18;;;8.05;;
42978;SDS011;28616;44.746;19.678;2023-07-24T13:40:09;16.65;;;8.57;;
42978;SDS011;28616;44.746;19.678;2023-07-24T13:42:35;18.30;;;8.05;;
42978;SDS011;28616;44.746;19.678;2023-07-24T13:45:01;12.40;;;8.20;;
42978;SDS011;28616;44.746;19.678;2023-07-24T13:47:27;14.00;;;8.10;;
42978;SDS011;28616;44.746;19.678;2023-07-24T13:49:53;15.65;;;7.95;;
42978;SDS011;28616;44.746;19.678;2023-07-24T13:52:20;16.25;;;7.80;;
42978;SDS011;28616;44.746;19.678;2023-07-24T13:54:46;12.93;;;7.85;;
42978;SDS011;28616;44.746;19.678;2023-07-24T13:57:12;15.05;;;8.30;;
42978;SDS011;28616;44.746;19.678;2023-07-24T13:59:39;14.48;;;7.82;;
42978;SDS011;28616;44.746;19.678;2023-07-24T14:02:05;13.50;;;7.78;;
42978;SDS011;28616;44.746;19.678;2023-07-24T14:04:32;14.30;;;7.93;;
42978;SDS011;28616;44.746;19.678;2023-07-24T14:06:58;13.77;;;7.97;;
42978;SDS011;28616;44.746;19.678;2023-07-24T14:09:24;15.02;;;7.45;;
42978;SDS011;28616;44.746;19.678;2023-07-24T14:11:50;14.75;;;8.07;;
42978;SDS011;28616;44.746;19.678;2023-07-24T14:14:17;15.60;;;8.27;;
42978;SDS011;28616;44.746;19.678;2023-07-24T14:16:44;14.15;;;8.30;;
42978;SDS011;28616;44.746;19.678;2023-07-24T14:19:10;16.13;;;8.45;;
42978;SDS011;28616;44.746;19.678;2023-07-24T14:21:36;14.85;;;7.63;;
42978;SDS011;28616;44.746;19.678;2023-07-24T14:24:02;12.45;;;7.68;;
42978;SDS011;28616;44.746;19.678;2023-07-24T14:26:28;14.65;;;7.57;;
42978;SDS011;28616;44.746;19.678;2023-07-24T14:28:55;14.18;;;7.53;;
42978;SDS011;28616;44.746;19.678;2023-07-24T14:31:21;14.18;;;7.93;;
42978;SDS011;28616;44.746;19.678;2023-07-24T14:33:47;12.88;;;7.63;;
42978;SDS011;28616;44.746;19.678;2023-07-24T14:36:13;13.45;;;7.88;;
42978;SDS011;28616;44.746;19.678;2023-07-24T14:38:39;14.77;;;7.35;;
42978;SDS011;28616;44.746;19.678;2023-07-24T14:41:05;14.27;;;8.13;;
42978;SDS011;28616;44.746;19.678;2023-07-24T14:43:31;11.80;;;7.82;;
42978;SDS011;28616;44.746;19.678;2023-07-24T14:45:58;17.85;;;7.65;;
42978;SDS011;28616;44.746;19.678;2023-07-24T14:48:24;13.27;;;8.18;;
42978;SDS011;28616;44.746;19.678;2023-07-24T14:50:51;17.30;;;8.02;;
42978;SDS011;28616;44.746;19.678;2023-07-24T14:53:17;14.00;;;7.95;;
42978;SDS011;28616;44.746;19.678;2023-07-24T14:55:43;13.23;;;7.55;;
42978;SDS011;28616;44.746;19.678;2023-07-24T14:58:10;13.20;;;7.80;;
42978;SDS011;28616;44.746;19.678;2023-07-24T15:00:36;15.27;;;7.70;;
42978;SDS011;28616;44.746;19.678;2023-07-24T15:03:03;13.73;;;8.13;;
42978;SDS011;28616;44.746;19.678;2023-07-24T15:05:29;14.20;;;8.25;;
42978;SDS011;28616;44.746;19.678;2023-07-24T15:07:55;12.90;;;7.82;;
42978;SDS011;28616;44.746;19.678;2023-07-24T15:10:21;19.00;;;8.15;;
42978;SDS011;28616;44.746;19.678;2023-07-24T15:12:47;12.15;;;7.80;;
42978;SDS011;28616;44.746;19.678;2023-07-24T15:15:14;18.65;;;8.95;;
42978;SDS011;28616;44.746;19.678;2023-07-24T15:17:40;13.25;;;7.90;;
42978;SDS011;28616;44.746;19.678;2023-07-24T15:20:06;15.35;;;8.15;;
42978;SDS011;28616;44.746;19.678;2023-07-24T15:22:33;15.80;;;8.95;;
42978;SDS011;28616;44.746;19.678;2023-07-24T15:25:00;19.70;;;8.73;;
42978;SDS011;28616;44.746;19.678;2023-07-24T15:27:27;13.48;;;7.95;;
42978;SDS011;28616;44.746;19.678;2023-07-24T15:32:18;15.57;;;8.23;;
42978;SDS011;28616;44.746;19.678;2023-07-24T15:34:44;18.90;;;8.48;;
42978;SDS011;28616;44.746;19.678;2023-07-24T15:37:11;14.45;;;8.00;;
42978;SDS011;28616;44.746;19.678;2023-07-24T15:39:37;17.52;;;8.27;;
42978;SDS011;28616;44.746;19.678;2023-07-24T15:42:03;15.25;;;8.73;;
42978;SDS011;28616;44.746;19.678;2023-07-24T15:44:29;15.18;;;8.43;;
42978;SDS011;28616;44.746;19.678;2023-07-24T15:46:55;14.98;;;8.38;;
42978;SDS011;28616;44.746;19.678;2023-07-24T15:49:21;13.00;;;8.23;;
42978;SDS011;28616;44.746;19.678;2023-07-24T15:51:48;15.48;;;8.27;;
42978;SDS011;28616;44.746;19.678;2023-07-24T15:54:14;20.98;;;9.13;;
42978;SDS011;28616;44.746;19.678;2023-07-24T15:56:40;15.93;;;8.10;;
42978;SDS011;28616;44.746;19.678;2023-07-24T15:59:06;13.80;;;8.32;;
42978;SDS011;28616;44.746;19.678;2023-07-24T16:01:34;14.93;;;8.38;;
42978;SDS011;28616;44.746;19.678;2023-07-24T16:04:00;16.63;;;8.30;;
42978;SDS011;28616;44.746;19.678;2023-07-24T16:06:27;17.52;;;8.82;;
42978;SDS011;28616;44.746;19.678;2023-07-24T16:08:53;22.92;;;8.85;;
42978;SDS011;28616;44.746;19.678;2023-07-24T16:11:19;15.13;;;8.55;;
42978;SDS011;28616;44.746;19.678;2023-07-24T16:13:46;15.57;;;8.13;;
42978;SDS011;28616;44.746;19.678;2023-07-24T16:16:12;16.63;;;9.10;;
42978;SDS011;28616;44.746;19.678;2023-07-24T16:18:38;16.55;;;8.30;;
42978;SDS011;28616;44.746;19.678;2023-07-24T16:21:04;13.25;;;8.15;;
42978;SDS011;28616;44.746;19.678;2023-07-24T16:23:30;20.38;;;9.10;;
42978;SDS011;28616;44.746;19.678;2023-07-24T16:25:56;18.85;;;8.40;;
42978;SDS011;28616;44.746;19.678;2023-07-24T16:28:23;18.45;;;9.55;;
42978;SDS011;28616;44.746;19.678;2023-07-24T16:30:49;18.77;;;8.80;;
42978;SDS011;28616;44.746;19.678;2023-07-24T16:33:17;16.58;;;8.88;;
42978;SDS011;28616;44.746;19.678;2023-07-24T16:35:43;17.35;;;9.18;;
42978;SDS011;28616;44.746;19.678;2023-07-24T16:38:09;15.52;;;8.60;;
42978;SDS011;28616;44.746;19.678;2023-07-24T16:40:39;16.25;;;9.55;;
42978;SDS011;28616;44.746;19.678;2023-07-24T16:43:05;16.73;;;8.98;;
42978;SDS011;28616;44.746;19.678;2023-07-24T16:45:31;14.95;;;8.23;;
42978;SDS011;28616;44.746;19.678;2023-07-24T16:47:57;19.77;;;9.45;;
42978;SDS011;28616;44.746;19.678;2023-07-24T16:50:23;19.73;;;8.65;;
42978;SDS011;28616;44.746;19.678;2023-07-24T16:52:49;15.30;;;9.00;;
42978;SDS011;28616;44.746;19.678;2023-07-24T16:55:16;17.23;;;9.05;;
42978;SDS011;28616;44.746;19.678;2023-07-24T16:57:42;15.50;;;9.23;;
42978;SDS011;28616;44.746;19.678;2023-07-24T17:00:09;19.63;;;9.10;;
42978;SDS011;28616;44.746;19.678;2023-07-24T17:02:35;16.48;;;9.30;;
42978;SDS011;28616;44.746;19.678;2023-07-24T17:05:02;17.35;;;9.50;;
42978;SDS011;28616;44.746;19.678;2023-07-24T17:07:29;18.92;;;9.18;;
42978;SDS011;28616;44.746;19.678;2023-07-24T17:09:55;22.83;;;9.05;;
42978;SDS011;28616;44.746;19.678;2023-07-24T17:12:21;18.17;;;9.13;;
42978;SDS011;28616;44.746;19.678;2023-07-24T17:14:47;20.08;;;9.93;;
42978;SDS011;28616;44.746;19.678;2023-07-24T17:17:13;17.92;;;9.57;;
42978;SDS011;28616;44.746;19.678;2023-07-24T17:19:39;18.33;;;8.77;;
42978;SDS011;28616;44.746;19.678;2023-07-24T17:22:05;22.27;;;10.02;;
42978;SDS011;28616;44.746;19.678;2023-07-24T17:24:31;21.48;;;8.93;;
42978;SDS011;28616;44.746;19.678;2023-07-24T17:26:57;21.98;;;10.98;;
42978;SDS011;28616;44.746;19.678;2023-07-24T17:29:23;21.20;;;9.77;;